createdAt,value
2022-11-05T00:00:49.978Z,100342.06
2022-11-05T00:03:36.149Z,100336.78
2022-11-05T00:06:22.332Z,100338.91
2022-11-05T00:09:16.151Z,100338.44
2022-11-05T00:12:02.440Z,100336.47
2022-11-05T00:14:48.726Z,100346.06
2022-11-05T00:17:16.231Z,100336.47
2022-11-05T00:19:43.709Z,100341.75
2022-11-05T00:22:29.976Z,100344.44
2022-11-05T00:25:16.129Z,100352.63
2022-11-05T00:27:51.586Z,100352.84
2022-11-05T00:30:21.698Z,100359.78
2022-11-05T00:32:50.731Z,100350.50
2022-11-05T00:35:20.635Z,100356.34
2022-11-05T00:37:50.375Z,100352.69
2022-11-05T00:40:18.340Z,100356.00
2022-11-05T00:43:04.752Z,100354.44
2022-11-05T00:45:32.283Z,100370.03
2022-11-05T00:48:18.270Z,100368.69
2022-11-05T00:50:46.132Z,100364.16
2022-11-05T00:53:13.807Z,100371.22
2022-11-05T00:55:44.918Z,100370.16
2022-11-05T00:58:17.994Z,100376.88
2022-11-05T01:00:50.408Z,100370.69
2022-11-05T01:03:20.316Z,100374.22
2022-11-05T01:05:53.367Z,100375.22
2022-11-05T01:08:22.630Z,100376.66
2022-11-05T01:10:56.126Z,100376.22
2022-11-05T01:13:29.878Z,100375.88
2022-11-05T01:15:57.675Z,100391.00
2022-11-05T01:18:25.462Z,100386.47
2022-11-05T01:20:53.209Z,100390.53
2022-11-05T01:23:21.294Z,100391.31
2022-11-05T01:25:48.936Z,100397.91
2022-11-05T01:28:16.408Z,100402.09
2022-11-05T01:30:44.088Z,100396.59
2022-11-05T01:33:11.829Z,100404.31
2022-11-05T01:35:39.961Z,100398.00
2022-11-05T01:38:07.387Z,100406.97
2022-11-05T01:40:34.819Z,100401.66
2022-11-05T01:43:02.258Z,100396.22
2022-11-05T01:45:29.691Z,100396.75
2022-11-05T01:48:03.683Z,100403.06
2022-11-05T01:50:43.410Z,100406.59
2022-11-05T01:53:28.967Z,100402.75
2022-11-05T01:56:08.364Z,100412.16
2022-11-05T01:58:48.928Z,100406.41
2022-11-05T02:01:17.389Z,100409.13
2022-11-05T02:03:46.057Z,100412.69
2022-11-05T02:06:16.699Z,100416.91
2022-11-05T02:08:59.093Z,100418.66
2022-11-05T02:11:26.787Z,100421.06
2022-11-05T02:13:54.271Z,100413.22
2022-11-05T02:16:48.866Z,100426.84
2022-11-05T02:20:07.310Z,100432.38
2022-11-05T02:22:49.632Z,100429.25
2022-11-05T02:25:26.026Z,100435.88
2022-11-05T02:28:37.643Z,100435.47
2022-11-05T02:31:12.354Z,100434.78
2022-11-05T02:34:04.509Z,100440.34
2022-11-05T02:36:56.336Z,100438.31
2022-11-05T02:39:42.614Z,100444.44
2022-11-05T02:42:35.052Z,100439.78
2022-11-05T02:45:05.454Z,100446.28
2022-11-05T02:47:47.334Z,100456.25
2022-11-05T02:50:23.643Z,100448.25
2022-11-05T02:52:57.021Z,100449.16
2022-11-05T02:55:37.593Z,100446.00
2022-11-05T02:58:05.956Z,100455.09
2022-11-05T03:00:52.471Z,100458.13
2022-11-05T03:03:29.115Z,100459.31
2022-11-05T03:06:14.506Z,100464.53
2022-11-05T03:09:14.260Z,100453.94
2022-11-05T03:12:01.889Z,100467.00
2022-11-05T03:14:51.607Z,100463.19
2022-11-05T03:17:29.710Z,100458.91
2022-11-05T03:20:02.139Z,100462.00
2022-11-05T03:22:37.109Z,100461.50
2022-11-05T03:25:11.089Z,100476.84
2022-11-05T03:27:45.566Z,100473.66
2022-11-05T03:30:16.381Z,100465.69
2022-11-05T03:32:48.874Z,100470.63
2022-11-05T03:35:46.111Z,100477.03
2022-11-05T03:38:20.500Z,100476.44
2022-11-05T03:40:51.862Z,100487.47
2022-11-05T03:43:23.517Z,100489.25
2022-11-05T03:45:57.318Z,100494.22
2022-11-05T03:48:29.588Z,100484.56
2022-11-05T03:51:08.177Z,100494.22
2022-11-05T03:53:43.794Z,100493.94
2022-11-05T03:56:18.271Z,100492.94
2022-11-05T03:58:46.726Z,100499.13
2022-11-05T04:01:14.890Z,100500.34
2022-11-05T04:03:42.472Z,100508.56
2022-11-05T04:06:29.271Z,100503.88
2022-11-05T04:09:15.405Z,100518.44
2022-11-05T04:12:01.634Z,100513.63
2022-11-05T04:14:30.479Z,100522.13
2022-11-05T04:17:07.353Z,100521.47
2022-11-05T04:20:03.469Z,100518.16
2022-11-05T04:22:53.322Z,100521.84
2022-11-05T04:25:21.796Z,100523.34
2022-11-05T04:27:49.358Z,100521.34
2022-11-05T04:30:18.804Z,100519.44
2022-11-05T04:33:21.623Z,100523.72
2022-11-05T04:35:49.226Z,100526.94
2022-11-05T04:38:18.673Z,100522.63
2022-11-05T04:40:47.803Z,100512.25
2022-11-05T04:43:18.111Z,100514.13
2022-11-05T04:45:46.263Z,100519.88
2022-11-05T04:48:13.742Z,100533.19
2022-11-05T04:50:41.183Z,100535.88
2022-11-05T04:53:08.831Z,100526.72
2022-11-05T04:55:36.570Z,100526.44
2022-11-05T04:58:03.978Z,100540.16
2022-11-05T05:00:31.465Z,100535.88
2022-11-05T05:02:59.028Z,100535.31
2022-11-05T05:05:26.582Z,100536.88
2022-11-05T05:07:54.136Z,100553.63
2022-11-05T05:10:21.560Z,100548.41
2022-11-05T05:12:48.991Z,100543.97
2022-11-05T05:15:16.533Z,100540.69
2022-11-05T05:17:43.966Z,100548.28
2022-11-05T05:20:30.185Z,100549.66
2022-11-05T05:22:57.635Z,100556.78
2022-11-05T05:25:25.542Z,100547.34
2022-11-05T05:27:52.951Z,100558.88
2022-11-05T05:30:20.374Z,100556.88
2022-11-05T05:32:47.827Z,100566.50
2022-11-05T05:35:15.824Z,100569.28
2022-11-05T05:37:44.434Z,100572.59
2022-11-05T05:40:12.003Z,100582.50
2022-11-05T05:42:43.200Z,100580.97
2022-11-05T05:45:12.723Z,100583.75
2022-11-05T05:47:40.258Z,100581.44
2022-11-05T05:50:07.953Z,100584.88
2022-11-05T05:52:35.365Z,100595.16
2022-11-05T05:55:02.831Z,100590.22
2022-11-05T05:57:30.370Z,100600.97
2022-11-05T05:59:57.815Z,100592.47
2022-11-05T06:02:25.563Z,100596.69
2022-11-05T06:04:53.060Z,100589.19
2022-11-05T06:07:20.490Z,100602.34
2022-11-05T06:09:47.919Z,100589.03
2022-11-05T06:12:15.360Z,100584.19
2022-11-05T06:14:42.812Z,100591.16
2022-11-05T06:17:10.303Z,100601.75
2022-11-05T06:19:37.751Z,100604.72
2022-11-05T06:22:07.906Z,100608.69
2022-11-05T06:24:35.408Z,100613.78
2022-11-05T06:27:02.861Z,100607.03
2022-11-05T06:29:30.402Z,100610.69
2022-11-05T06:31:57.812Z,100613.88
2022-11-05T06:34:25.306Z,100609.41
2022-11-05T06:36:52.797Z,100609.81
2022-11-05T06:39:20.234Z,100606.94
2022-11-05T06:44:35.100Z,100614.16
2022-11-05T06:47:02.586Z,100616.81
2022-11-05T06:49:30.005Z,100618.56
2022-11-05T06:51:58.638Z,100614.38
2022-11-05T06:54:26.042Z,100624.53
2022-11-05T06:56:53.473Z,100625.31
2022-11-05T06:59:21.144Z,100624.16
2022-11-05T07:01:48.684Z,100635.69
2022-11-05T07:04:16.383Z,100631.50
2022-11-05T07:06:43.846Z,100635.19
2022-11-05T07:09:13.674Z,100639.84
2022-11-05T07:11:41.253Z,100632.81
2022-11-05T07:14:08.714Z,100644.88
2022-11-05T07:16:36.200Z,100635.94
2022-11-05T07:19:04.045Z,100641.19
2022-11-05T07:21:31.577Z,100640.75
2022-11-05T07:23:58.984Z,100637.81
2022-11-05T07:26:31.856Z,100634.16
2022-11-05T07:29:01.991Z,100641.50
2022-11-05T07:31:29.465Z,100648.97
2022-11-05T07:33:56.981Z,100644.03
2022-11-05T07:36:24.397Z,100657.31
2022-11-05T07:38:54.925Z,100662.25
2022-11-05T07:41:29.425Z,100659.97
2022-11-05T07:43:56.910Z,100664.81
2022-11-05T07:46:24.325Z,100666.28
2022-11-05T07:48:51.847Z,100664.28
2022-11-05T07:51:19.462Z,100671.38
2022-11-05T07:53:48.337Z,100677.38
2022-11-05T07:56:16.169Z,100675.94
2022-11-05T07:58:43.627Z,100676.03
2022-11-05T08:01:11.276Z,100671.72
2022-11-05T08:03:38.914Z,100672.72
2022-11-05T08:06:06.945Z,100683.16
2022-11-05T08:08:34.868Z,100678.84
2022-11-05T08:11:04.329Z,100685.69
2022-11-05T08:13:31.857Z,100686.56
2022-11-05T08:16:00.199Z,100685.03
2022-11-05T08:18:32.146Z,100680.06
2022-11-05T08:21:01.641Z,100679.53
2022-11-05T08:23:31.255Z,100683.84
2022-11-05T08:25:59.333Z,100685.22
2022-11-05T08:28:27.101Z,100682.13
2022-11-05T08:30:56.606Z,100678.69
2022-11-05T08:33:25.368Z,100681.50
2022-11-05T08:35:52.851Z,100687.56
2022-11-05T08:38:20.875Z,100684.56
2022-11-05T08:40:58.398Z,100694.66
2022-11-05T08:43:26.342Z,100696.09
2022-11-05T08:45:55.120Z,100693.66
2022-11-05T08:48:22.717Z,100696.09
2022-11-05T08:50:50.731Z,100703.03
2022-11-05T08:53:18.545Z,100693.66
2022-11-05T08:55:47.798Z,100700.28
2022-11-05T08:58:17.229Z,100684.66
2022-11-05T09:00:47.935Z,100688.34
2022-11-05T09:03:16.429Z,100685.91
2022-11-05T09:05:44.427Z,100681.81
2022-11-05T09:08:17.084Z,100685.13
2022-11-05T09:10:49.951Z,100683.00
2022-11-05T09:13:19.851Z,100691.41
2022-11-05T09:15:52.395Z,100686.44
2022-11-05T09:18:20.572Z,100691.66
2022-11-05T09:20:48.162Z,100691.00
2022-11-05T09:23:16.290Z,100691.78
2022-11-05T09:25:44.631Z,100684.66
2022-11-05T09:28:17.032Z,100695.19
2022-11-05T09:30:47.332Z,100696.75
2022-11-05T09:33:16.098Z,100697.63
2022-11-05T09:35:46.896Z,100691.66
2022-11-05T09:38:14.900Z,100693.91
2022-11-05T09:41:08.770Z,100700.00
2022-11-05T09:43:50.489Z,100693.81
2022-11-05T09:46:24.564Z,100697.78
2022-11-05T09:48:57.624Z,100700.31
2022-11-05T09:51:25.200Z,100697.44
2022-11-05T09:53:53.880Z,100703.63
2022-11-05T09:56:25.218Z,100701.19
2022-11-05T09:59:01.506Z,100708.97
2022-11-05T10:01:34.009Z,100712.16
2022-11-05T10:04:06.877Z,100718.91
2022-11-05T10:06:35.718Z,100720.56
2022-11-05T10:09:12.244Z,100719.25
2022-11-05T10:11:46.907Z,100726.34
2022-11-05T10:14:20.188Z,100724.47
2022-11-05T10:17:00.348Z,100718.41
2022-11-05T10:19:43.456Z,100717.19
2022-11-05T10:22:16.262Z,100719.16
2022-11-05T10:24:47.227Z,100723.22
2022-11-05T10:27:30.431Z,100731.97
2022-11-05T10:29:58.386Z,100719.78
2022-11-05T10:32:40.163Z,100724.75
2022-11-05T10:35:12.215Z,100723.28
2022-11-05T10:37:41.365Z,100725.94
2022-11-05T10:40:22.658Z,100730.91
2022-11-05T10:42:59.411Z,100721.88
2022-11-05T10:46:01.521Z,100728.47
2022-11-05T10:48:44.002Z,100731.78
2022-11-05T10:51:12.866Z,100733.63
2022-11-05T10:53:50.504Z,100728.00
2022-11-05T10:56:39.158Z,100732.78
2022-11-05T10:59:24.440Z,100736.78
2022-11-05T11:02:03.348Z,100734.75
2022-11-05T11:04:37.474Z,100744.69
2022-11-05T11:07:17.286Z,100748.13
2022-11-05T11:09:48.772Z,100742.38
2022-11-05T11:12:29.001Z,100751.25
2022-11-05T11:15:15.542Z,100740.19
2022-11-05T11:17:43.160Z,100743.03
2022-11-05T11:20:31.751Z,100755.16
2022-11-05T11:23:05.070Z,100753.97
2022-11-05T11:25:42.215Z,100755.22
2022-11-05T11:28:20.387Z,100763.38
2022-11-05T11:30:55.826Z,100756.41
2022-11-05T11:33:27.704Z,100772.28
2022-11-05T11:35:55.751Z,100767.75
2022-11-05T11:38:24.622Z,100776.28
2022-11-05T11:41:19.983Z,100773.31
2022-11-05T11:43:47.726Z,100766.75
2022-11-05T11:46:19.318Z,100775.91
2022-11-05T11:48:48.623Z,100779.59
2022-11-05T11:51:40.555Z,100772.06
2022-11-05T11:54:20.276Z,100771.41
2022-11-05T11:56:48.976Z,100763.56
2022-11-05T11:59:53.822Z,100774.50
2022-11-05T12:02:33.839Z,100767.47
2022-11-05T12:05:13.617Z,100769.34
2022-11-05T12:07:52.971Z,100766.88
2022-11-05T12:10:35.476Z,100778.94
2022-11-05T12:13:21.380Z,100778.28
2022-11-05T12:16:17.551Z,100777.63
2022-11-05T12:19:09.466Z,100778.59
2022-11-05T12:21:53.441Z,100791.16
2022-11-05T12:24:54.754Z,100786.84
2022-11-05T12:27:31.022Z,100780.53
2022-11-05T12:30:04.255Z,100780.38
2022-11-05T12:32:49.392Z,100778.59
2022-11-05T12:36:04.743Z,100781.47
2022-11-05T12:38:50.581Z,100781.25
2022-11-05T12:41:33.714Z,100779.50
2022-11-05T12:44:13.078Z,100786.13
2022-11-05T12:46:49.633Z,100788.28
2022-11-05T12:49:42.194Z,100798.59
2022-11-05T12:52:24.301Z,100792.88
2022-11-05T12:55:13.614Z,100795.78
2022-11-05T12:57:45.610Z,100785.78
2022-11-05T13:00:24.942Z,100787.56
2022-11-05T13:03:22.162Z,100786.56
2022-11-05T13:05:55.191Z,100792.56
2022-11-05T13:08:48.765Z,100792.41
2022-11-05T13:11:43.332Z,100793.31
2022-11-05T13:14:16.000Z,100799.16
2022-11-05T13:16:49.602Z,100804.91
2022-11-05T13:19:52.642Z,100796.78
2022-11-05T13:22:45.136Z,100798.53
2022-11-05T13:25:29.094Z,100806.66
2022-11-05T13:28:19.530Z,100800.19
2022-11-05T13:30:52.892Z,100812.78
2022-11-05T13:33:34.759Z,100816.72
2022-11-05T13:36:39.247Z,100822.56
2022-11-05T13:39:35.313Z,100813.56
2022-11-05T13:42:37.599Z,100827.88
2022-11-05T13:45:25.102Z,100824.44
2022-11-05T13:48:16.722Z,100830.84
2022-11-05T13:51:00.620Z,100839.50
2022-11-05T13:53:49.321Z,100836.41
2022-11-05T13:56:31.647Z,100839.34
2022-11-05T13:59:23.898Z,100846.69
2022-11-05T14:01:51.421Z,100842.25
2022-11-05T14:04:32.938Z,100847.97
2022-11-05T14:07:25.798Z,100851.50
2022-11-05T14:10:22.054Z,100846.56
2022-11-05T14:12:53.101Z,100846.97
2022-11-05T14:15:25.770Z,100841.09
2022-11-05T14:18:04.103Z,100849.75
2022-11-05T14:20:31.538Z,100844.56
2022-11-05T14:23:17.557Z,100854.44
2022-11-05T14:25:45.237Z,100854.47
2022-11-05T14:28:34.363Z,100854.59
2022-11-05T14:31:03.316Z,100853.47
2022-11-05T14:33:37.520Z,100853.56
2022-11-05T14:36:20.359Z,100853.56
2022-11-05T14:38:51.454Z,100851.03
2022-11-05T14:41:20.970Z,100848.50
2022-11-05T14:44:00.073Z,100850.16
2022-11-05T14:47:07.191Z,100858.00
2022-11-05T14:49:53.101Z,100856.13
2022-11-05T14:52:21.351Z,100864.50
2022-11-05T14:54:52.458Z,100867.28
2022-11-05T14:57:55.476Z,100859.91
2022-11-05T15:00:29.050Z,100857.63
2022-11-05T15:03:01.548Z,100861.69
2022-11-05T15:05:33.334Z,100872.59
2022-11-05T15:08:24.892Z,100869.31
2022-11-05T15:10:56.283Z,100858.13
2022-11-05T15:13:40.578Z,100861.78
2022-11-05T15:16:08.861Z,100865.63
2022-11-05T15:18:45.711Z,100855.59
2022-11-05T15:21:16.631Z,100869.84
2022-11-05T15:23:46.845Z,100877.69
2022-11-05T15:26:42.111Z,100875.16
2022-11-05T15:29:22.298Z,100877.56
2022-11-05T15:31:51.004Z,100880.25
2022-11-05T15:34:28.936Z,100883.03
2022-11-05T15:37:20.173Z,100888.75
2022-11-05T15:39:50.369Z,100887.59
2022-11-05T15:42:23.978Z,100884.06
2022-11-05T15:44:59.790Z,100892.69
2022-11-05T15:47:30.175Z,100890.66
2022-11-05T15:50:03.957Z,100897.63
2022-11-05T15:52:36.473Z,100899.06
2022-11-05T15:55:20.040Z,100894.47
2022-11-05T15:58:00.137Z,100889.91
2022-11-05T16:00:30.357Z,100891.44
2022-11-05T16:03:08.207Z,100887.72
2022-11-05T16:05:43.419Z,100887.84
2022-11-05T16:08:27.870Z,100889.00
2022-11-05T16:11:00.768Z,100889.28
2022-11-05T16:13:41.191Z,100889.28
2022-11-05T16:16:14.995Z,100890.41
2022-11-05T16:18:44.273Z,100891.44
2022-11-05T16:21:22.798Z,100896.00
2022-11-05T16:23:54.693Z,100896.63
2022-11-05T16:27:02.268Z,100886.59
2022-11-05T16:29:35.242Z,100882.78
2022-11-05T16:32:17.708Z,100885.56
2022-11-05T16:34:52.435Z,100891.81
2022-11-05T16:37:23.983Z,100892.44
2022-11-05T16:39:52.397Z,100892.31
2022-11-05T16:42:22.831Z,100900.81
2022-11-05T16:44:51.916Z,100907.16
2022-11-05T16:47:19.993Z,100898.00
2022-11-05T16:49:48.643Z,100904.88
2022-11-05T16:52:16.512Z,100891.66
2022-11-05T16:54:44.472Z,100893.31
2022-11-05T16:57:28.058Z,100898.66
2022-11-05T16:59:57.310Z,100898.25
2022-11-05T17:02:26.003Z,100910.56
2022-11-05T17:04:54.007Z,100907.78
2022-11-05T17:07:21.670Z,100906.38
2022-11-05T17:09:49.445Z,100911.59
2022-11-05T17:12:16.972Z,100903.22
2022-11-05T17:14:44.611Z,100910.84
2022-11-05T17:17:12.176Z,100911.09
2022-11-05T17:19:42.513Z,100909.03
2022-11-05T17:22:10.470Z,100907.03
2022-11-05T17:24:39.008Z,100918.06
2022-11-05T17:27:06.598Z,100917.94
2022-11-05T17:29:34.238Z,100916.28
2022-11-05T17:32:01.803Z,100908.03
2022-11-05T17:34:29.456Z,100901.69
2022-11-05T17:36:59.605Z,100908.69
2022-11-05T17:39:31.453Z,100919.84
2022-11-05T17:41:59.531Z,100916.53
2022-11-05T17:44:27.163Z,100919.06
2022-11-05T17:46:54.812Z,100912.59
2022-11-05T17:49:22.456Z,100915.00
2022-11-05T17:51:51.503Z,100914.00
2022-11-05T17:54:19.257Z,100911.94
2022-11-05T17:56:49.855Z,100917.19
2022-11-05T17:59:17.907Z,100923.50
2022-11-05T18:01:46.228Z,100925.91
2022-11-05T18:04:14.181Z,100926.44
2022-11-05T18:06:42.353Z,100929.34
2022-11-05T18:09:10.859Z,100931.22
2022-11-05T18:11:40.034Z,100936.31
2022-11-05T18:14:07.819Z,100935.81
2022-11-05T18:16:35.883Z,100928.81
2022-11-05T18:19:04.283Z,100934.31
2022-11-05T18:21:31.848Z,100932.66
2022-11-05T18:24:06.680Z,100932.16
2022-11-05T18:26:35.262Z,100930.88
2022-11-05T18:29:05.278Z,100934.84
2022-11-05T18:31:32.919Z,100939.66
2022-11-05T18:34:00.733Z,100936.88
2022-11-05T18:36:30.683Z,100929.00
2022-11-05T18:38:59.846Z,100932.81
2022-11-05T18:41:27.824Z,100929.34
2022-11-05T18:44:00.674Z,100934.19
2022-11-05T18:46:56.665Z,100940.03
2022-11-05T18:49:17.596Z,100935.84
2022-11-05T18:51:45.257Z,100937.38
2022-11-05T18:54:13.003Z,100940.91
2022-11-05T18:56:45.470Z,100930.28
2022-11-05T18:59:35.944Z,100934.19
2022-11-05T19:02:01.959Z,100927.22
2022-11-05T19:04:30.921Z,100933.78
2022-11-05T19:07:04.156Z,100929.09
2022-11-05T19:09:34.528Z,100931.22
2022-11-05T19:12:03.144Z,100935.03
2022-11-05T19:14:31.613Z,100945.16
2022-11-05T19:17:00.339Z,100945.28
2022-11-05T19:19:28.099Z,100958.84
2022-11-05T19:21:55.857Z,100952.00
2022-11-05T19:24:24.205Z,100958.25
2022-11-05T19:26:52.035Z,100950.22
2022-11-05T19:29:21.148Z,100965.56
2022-11-05T19:31:48.781Z,100968.63
2022-11-05T19:34:16.505Z,100965.78
2022-11-05T19:36:44.145Z,100968.50
2022-11-05T19:39:14.288Z,100972.94
2022-11-05T19:41:42.273Z,100975.94
2022-11-05T19:44:10.036Z,100975.94
2022-11-05T19:46:37.911Z,100976.72
2022-11-05T19:49:05.792Z,100967.84
2022-11-05T19:51:34.036Z,100971.03
2022-11-05T19:54:03.512Z,100976.59
2022-11-05T19:56:33.877Z,100973.50
2022-11-05T19:59:06.750Z,100972.63
2022-11-05T20:01:35.479Z,100973.50
2022-11-05T20:04:04.897Z,100977.81
2022-11-05T20:06:38.992Z,100977.97
2022-11-05T20:09:27.175Z,100986.34
2022-11-05T20:11:56.639Z,100983.81
2022-11-05T20:14:25.869Z,100987.25
2022-11-05T20:16:53.978Z,100989.28
2022-11-05T20:19:22.982Z,100986.47
2022-11-05T20:21:50.749Z,100991.56
2022-11-05T20:24:24.141Z,100998.41
2022-11-05T20:26:54.828Z,100991.25
2022-11-05T20:29:23.447Z,100993.03
2022-11-05T20:31:52.690Z,100996.63
2022-11-05T20:34:20.333Z,100985.19
2022-11-05T20:36:47.895Z,100978.81
2022-11-05T20:39:16.807Z,100979.22
2022-11-05T20:41:44.559Z,100979.97
2022-11-05T20:44:11.997Z,100986.06
2022-11-05T20:46:40.078Z,100979.63
2022-11-05T20:49:07.824Z,100975.03
2022-11-05T20:51:35.457Z,100982.75
2022-11-05T20:54:04.219Z,100971.72
2022-11-05T20:56:35.454Z,100983.94
2022-11-05T20:59:04.113Z,100976.81
2022-11-05T21:01:33.286Z,100983.94
2022-11-05T21:04:01.709Z,100981.53
2022-11-05T21:06:29.385Z,100982.88
2022-11-05T21:08:56.844Z,100977.97
2022-11-05T21:11:24.421Z,100978.09
2022-11-05T21:13:52.137Z,100979.75
2022-11-05T21:16:20.498Z,100977.81
2022-11-05T21:18:48.473Z,100977.34
2022-11-05T21:21:20.141Z,100983.44
2022-11-05T21:23:48.160Z,100977.34
2022-11-05T21:26:16.994Z,100977.34
2022-11-05T21:28:44.599Z,100978.22
2022-11-05T21:31:12.367Z,100971.72
2022-11-05T21:33:40.015Z,100986.72
2022-11-05T21:36:10.283Z,100988.50
2022-11-05T21:38:38.089Z,100982.28
2022-11-05T21:41:06.462Z,100998.28
2022-11-05T21:43:34.732Z,100991.00
2022-11-05T21:46:03.840Z,100999.38
2022-11-05T21:48:32.350Z,100995.41
2022-11-05T21:51:18.986Z,100999.47
2022-11-05T21:54:05.399Z,100995.28
2022-11-05T21:56:52.165Z,100999.31
2022-11-05T21:59:42.955Z,101001.84
2022-11-05T22:02:12.695Z,101001.47
2022-11-05T22:04:45.454Z,100993.44
2022-11-05T22:07:15.783Z,101004.13
2022-11-05T22:09:43.612Z,100994.31
2022-11-05T22:12:11.314Z,100997.03
2022-11-05T22:14:39.048Z,100989.13
2022-11-05T22:17:09.415Z,100995.97
2022-11-05T22:19:37.007Z,100993.44
2022-11-05T22:22:06.350Z,100998.25
2022-11-05T22:24:35.432Z,101005.09
2022-11-05T22:27:06.083Z,101007.50
2022-11-05T22:29:33.833Z,101012.16
2022-11-05T22:32:01.498Z,101009.75
2022-11-05T22:34:29.094Z,101013.16
2022-11-05T22:36:56.784Z,101022.44
2022-11-05T22:39:24.281Z,101017.84
2022-11-05T22:41:55.981Z,101025.84
2022-11-05T22:44:24.132Z,101027.66
2022-11-05T22:46:52.573Z,101035.25
2022-11-05T22:49:20.285Z,101021.41
2022-11-05T22:51:47.906Z,101032.56
2022-11-05T22:54:15.374Z,101021.41
2022-11-05T22:56:43.401Z,101037.50
2022-11-05T22:59:14.725Z,101026.34
2022-11-05T23:01:44.370Z,101039.03
2022-11-05T23:04:13.269Z,101040.81
2022-11-05T23:06:59.520Z,101043.34
2022-11-05T23:09:51.172Z,101045.88
2022-11-05T23:12:27.857Z,101049.72
2022-11-05T23:14:57.302Z,101043.41
2022-11-05T23:17:43.631Z,101043.34
2022-11-05T23:20:39.056Z,101040.75
2022-11-05T23:23:28.863Z,101055.66
2022-11-05T23:26:00.421Z,101042.53
2022-11-05T23:28:27.935Z,101045.81
2022-11-05T23:31:13.741Z,101041.22
2022-11-05T23:33:41.319Z,101044.75
2022-11-05T23:36:31.024Z,101041.75
2022-11-05T23:38:58.528Z,101037.38
2022-11-05T23:41:44.752Z,101038.13
2022-11-05T23:44:30.484Z,101042.84
2022-11-05T23:47:16.598Z,101037.66
2022-11-05T23:49:44.029Z,101032.72
2022-11-05T23:52:11.617Z,101033.00
2022-11-05T23:54:39.044Z,101033.00
2022-11-05T23:57:06.567Z,101024.47
2022-11-05T23:59:34.004Z,101031.88
